sensor_id;sensor_type;location;lat;lon;timestamp;P1;durP1;ratioP1;P2;durP2;ratioP2
49820;SDS011;36893;52.520;13.450;2022-11-20T00:02:16;7.10;;;2.17;;
49820;SDS011;36893;52.520;13.450;2022-11-20T00:12:16;4.73;;;2.20;;
49820;SDS011;36893;52.520;13.450;2022-11-20T00:22:17;3.40;;;1.93;;
49820;SDS011;36893;52.520;13.450;2022-11-20T00:32:18;5.27;;;2.20;;
49820;SDS011;36893;52.520;13.450;2022-11-20T00:42:18;3.75;;;1.58;;
49820;SDS011;36893;52.520;13.450;2022-11-20T00:52:19;5.30;;;2.13;;
49820;SDS011;36893;52.520;13.450;2022-11-20T01:02:20;4.13;;;2.03;;
49820;SDS011;36893;52.520;13.450;2022-11-20T01:12:21;3.95;;;1.92;;
49820;SDS011;36893;52.520;13.450;2022-11-20T01:22:22;5.63;;;2.17;;
49820;SDS011;36893;52.520;13.450;2022-11-20T01:32:23;7.45;;;1.73;;
49820;SDS011;36893;52.520;13.450;2022-11-20T01:42:23;2.27;;;1.43;;
49820;SDS011;36893;52.520;13.450;2022-11-20T01:53:06;4.50;;;1.70;;
49820;SDS011;36893;52.520;13.450;2022-11-20T02:03:09;5.47;;;1.80;;
49820;SDS011;36893;52.520;13.450;2022-11-20T02:13:16;4.32;;;1.70;;
49820;SDS011;36893;52.520;13.450;2022-11-20T02:23:39;5.10;;;1.77;;
49820;SDS011;36893;52.520;13.450;2022-11-20T02:34:06;4.10;;;1.70;;
49820;SDS011;36893;52.520;13.450;2022-11-20T02:44:07;6.90;;;2.00;;
49820;SDS011;36893;52.520;13.450;2022-11-20T02:54:08;3.67;;;1.77;;
49820;SDS011;36893;52.520;13.450;2022-11-20T03:04:08;5.77;;;1.70;;
49820;SDS011;36893;52.520;13.450;2022-11-20T03:14:09;5.20;;;1.33;;
49820;SDS011;36893;52.520;13.450;2022-11-20T03:24:10;3.90;;;1.67;;
49820;SDS011;36893;52.520;13.450;2022-11-20T03:34:10;2.50;;;1.47;;
49820;SDS011;36893;52.520;13.450;2022-11-20T03:44:12;6.70;;;1.40;;
49820;SDS011;36893;52.520;13.450;2022-11-20T03:54:12;4.23;;;2.00;;
49820;SDS011;36893;52.520;13.450;2022-11-20T04:04:13;2.17;;;1.20;;
49820;SDS011;36893;52.520;13.450;2022-11-20T04:14:14;2.60;;;1.57;;
49820;SDS011;36893;52.520;13.450;2022-11-20T04:24:16;4.45;;;1.42;;
49820;SDS011;36893;52.520;13.450;2022-11-20T04:34:16;4.17;;;1.77;;
49820;SDS011;36893;52.520;13.450;2022-11-20T04:44:17;3.03;;;1.70;;
49820;SDS011;36893;52.520;13.450;2022-11-20T04:54:18;2.63;;;1.40;;
49820;SDS011;36893;52.520;13.450;2022-11-20T05:04:20;2.72;;;1.48;;
49820;SDS011;36893;52.520;13.450;2022-11-20T05:14:20;3.07;;;1.67;;
49820;SDS011;36893;52.520;13.450;2022-11-20T05:24:21;2.50;;;1.30;;
49820;SDS011;36893;52.520;13.450;2022-11-20T05:34:22;6.20;;;1.40;;
49820;SDS011;36893;52.520;13.450;2022-11-20T05:44:22;2.10;;;1.33;;
49820;SDS011;36893;52.520;13.450;2022-11-20T05:54:23;4.23;;;1.50;;
49820;SDS011;36893;52.520;13.450;2022-11-20T06:04:24;2.70;;;1.57;;
49820;SDS011;36893;52.520;13.450;2022-11-20T06:14:24;4.23;;;1.13;;
49820;SDS011;36893;52.520;13.450;2022-11-20T06:24:25;1.30;;;1.03;;
49820;SDS011;36893;52.520;13.450;2022-11-20T06:34:26;4.63;;;1.47;;
49820;SDS011;36893;52.520;13.450;2022-11-20T06:44:26;4.57;;;1.20;;
49820;SDS011;36893;52.520;13.450;2022-11-20T06:54:27;5.93;;;1.20;;
49820;SDS011;36893;52.520;13.450;2022-11-20T07:04:27;4.00;;;1.47;;
49820;SDS011;36893;52.520;13.450;2022-11-20T07:14:28;6.23;;;1.47;;
49820;SDS011;36893;52.520;13.450;2022-11-20T07:24:29;2.30;;;1.50;;
49820;SDS011;36893;52.520;13.450;2022-11-20T07:34:29;2.80;;;1.20;;
49820;SDS011;36893;52.520;13.450;2022-11-20T07:44:30;7.67;;;2.03;;
49820;SDS011;36893;52.520;13.450;2022-11-20T07:54:31;12.20;;;1.67;;
49820;SDS011;36893;52.520;13.450;2022-11-20T08:04:32;4.97;;;1.75;;
49820;SDS011;36893;52.520;13.450;2022-11-20T08:14:33;12.80;;;2.17;;
49820;SDS011;36893;52.520;13.450;2022-11-20T08:24:33;4.47;;;1.43;;
49820;SDS011;36893;52.520;13.450;2022-11-20T08:34:34;5.43;;;1.67;;
49820;SDS011;36893;52.520;13.450;2022-11-20T08:44:35;9.70;;;1.63;;
49820;SDS011;36893;52.520;13.450;2022-11-20T08:54:36;7.33;;;1.93;;
49820;SDS011;36893;52.520;13.450;2022-11-20T09:04:36;7.53;;;1.90;;
49820;SDS011;36893;52.520;13.450;2022-11-20T09:14:38;4.00;;;1.23;;
49820;SDS011;36893;52.520;13.450;2022-11-20T09:24:39;3.30;;;1.50;;
49820;SDS011;36893;52.520;13.450;2022-11-20T09:34:39;2.93;;;1.67;;
49820;SDS011;36893;52.520;13.450;2022-11-20T09:44:59;4.60;;;2.07;;
49820;SDS011;36893;52.520;13.450;2022-11-20T09:55:11;10.05;;;1.40;;
49820;SDS011;36893;52.520;13.450;2022-11-20T10:05:31;9.95;;;2.15;;
49820;SDS011;36893;52.520;13.450;2022-11-20T10:15:45;10.23;;;1.83;;
49820;SDS011;36893;52.520;13.450;2022-11-20T10:26:02;6.95;;;1.75;;
49820;SDS011;36893;52.520;13.450;2022-11-20T10:36:19;8.05;;;1.63;;
49820;SDS011;36893;52.520;13.450;2022-11-20T10:46:26;6.85;;;1.63;;
49820;SDS011;36893;52.520;13.450;2022-11-20T10:56:42;12.75;;;2.53;;
49820;SDS011;36893;52.520;13.450;2022-11-20T11:06:48;3.20;;;1.60;;
49820;SDS011;36893;52.520;13.450;2022-11-20T11:16:56;5.63;;;1.98;;
49820;SDS011;36893;52.520;13.450;2022-11-20T11:27:02;2.83;;;1.45;;
49820;SDS011;36893;52.520;13.450;2022-11-20T11:37:15;7.50;;;2.13;;
49820;SDS011;36893;52.520;13.450;2022-11-20T11:58:11;9.20;;;2.22;;
49820;SDS011;36893;52.520;13.450;2022-11-20T12:08:50;7.55;;;2.53;;
49820;SDS011;36893;52.520;13.450;2022-11-20T12:18:59;6.50;;;2.67;;
49820;SDS011;36893;52.520;13.450;2022-11-20T12:39:41;9.95;;;2.83;;
49820;SDS011;36893;52.520;13.450;2022-11-20T12:49:54;18.60;;;3.45;;
49820;SDS011;36893;52.520;13.450;2022-11-20T13:00:07;7.57;;;2.92;;
49820;SDS011;36893;52.520;13.450;2022-11-20T13:10:18;8.10;;;3.30;;
49820;SDS011;36893;52.520;13.450;2022-11-20T13:20:27;6.38;;;2.17;;
49820;SDS011;36893;52.520;13.450;2022-11-20T13:30:36;13.43;;;2.50;;
49820;SDS011;36893;52.520;13.450;2022-11-20T13:40:51;5.13;;;2.30;;
49820;SDS011;36893;52.520;13.450;2022-11-20T14:01:15;3.92;;;2.22;;
49820;SDS011;36893;52.520;13.450;2022-11-20T14:11:21;5.07;;;2.47;;
49820;SDS011;36893;52.520;13.450;2022-11-20T14:21:27;5.90;;;2.17;;
49820;SDS011;36893;52.520;13.450;2022-11-20T14:31:29;3.88;;;1.83;;
49820;SDS011;36893;52.520;13.450;2022-11-20T14:41:30;10.07;;;2.22;;
49820;SDS011;36893;52.520;13.450;2022-11-20T14:51:33;4.60;;;2.33;;
49820;SDS011;36893;52.520;13.450;2022-11-20T15:01:41;9.55;;;2.15;;
49820;SDS011;36893;52.520;13.450;2022-11-20T15:11:58;3.05;;;1.45;;
49820;SDS011;36893;52.520;13.450;2022-11-20T15:22:01;5.47;;;1.60;;
49820;SDS011;36893;52.520;13.450;2022-11-20T15:32:02;6.25;;;1.90;;
49820;SDS011;36893;52.520;13.450;2022-11-20T15:42:03;6.07;;;1.95;;
49820;SDS011;36893;52.520;13.450;2022-11-20T15:52:04;6.80;;;2.63;;
49820;SDS011;36893;52.520;13.450;2022-11-20T16:02:11;10.23;;;2.67;;
49820;SDS011;36893;52.520;13.450;2022-11-20T16:12:12;3.28;;;1.65;;
49820;SDS011;36893;52.520;13.450;2022-11-20T16:22:32;4.60;;;1.92;;
49820;SDS011;36893;52.520;13.450;2022-11-20T16:32:33;7.63;;;2.07;;
49820;SDS011;36893;52.520;13.450;2022-11-20T16:42:34;3.80;;;1.73;;
49820;SDS011;36893;52.520;13.450;2022-11-20T16:52:36;2.67;;;1.50;;
49820;SDS011;36893;52.520;13.450;2022-11-20T17:02:36;2.00;;;1.30;;
49820;SDS011;36893;52.520;13.450;2022-11-20T17:12:37;3.40;;;1.43;;
49820;SDS011;36893;52.520;13.450;2022-11-20T17:22:38;4.87;;;1.43;;
49820;SDS011;36893;52.520;13.450;2022-11-20T17:32:38;6.13;;;1.87;;
49820;SDS011;36893;52.520;13.450;2022-11-20T17:42:44;5.60;;;1.70;;
49820;SDS011;36893;52.520;13.450;2022-11-20T17:52:45;4.13;;;1.40;;
49820;SDS011;36893;52.520;13.450;2022-11-20T18:02:45;7.10;;;1.83;;
49820;SDS011;36893;52.520;13.450;2022-11-20T18:12:46;3.83;;;1.37;;
49820;SDS011;36893;52.520;13.450;2022-11-20T18:22:47;5.23;;;1.63;;
49820;SDS011;36893;52.520;13.450;2022-11-20T18:32:47;2.77;;;1.10;;
49820;SDS011;36893;52.520;13.450;2022-11-20T18:42:49;6.05;;;1.92;;
49820;SDS011;36893;52.520;13.450;2022-11-20T18:53:08;2.58;;;1.30;;
49820;SDS011;36893;52.520;13.450;2022-11-20T19:03:08;10.87;;;2.17;;
49820;SDS011;36893;52.520;13.450;2022-11-20T19:13:09;4.72;;;1.58;;
49820;SDS011;36893;52.520;13.450;2022-11-20T19:23:10;4.07;;;1.40;;
49820;SDS011;36893;52.520;13.450;2022-11-20T19:33:12;7.63;;;1.85;;
49820;SDS011;36893;52.520;13.450;2022-11-20T19:43:14;9.35;;;1.85;;
49820;SDS011;36893;52.520;13.450;2022-11-20T19:53:15;6.55;;;2.30;;
49820;SDS011;36893;52.520;13.450;2022-11-20T20:03:17;6.05;;;2.13;;
49820;SDS011;36893;52.520;13.450;2022-11-20T20:13:18;6.30;;;2.50;;
49820;SDS011;36893;52.520;13.450;2022-11-20T20:23:18;7.33;;;2.40;;
49820;SDS011;36893;52.520;13.450;2022-11-20T20:33:19;8.43;;;2.53;;
49820;SDS011;36893;52.520;13.450;2022-11-20T20:43:23;6.68;;;2.90;;
49820;SDS011;36893;52.520;13.450;2022-11-20T20:53:24;8.35;;;3.53;;
49820;SDS011;36893;52.520;13.450;2022-11-20T21:03:26;8.02;;;2.88;;
49820;SDS011;36893;52.520;13.450;2022-11-20T21:13:27;7.60;;;3.40;;
49820;SDS011;36893;52.520;13.450;2022-11-20T21:23:28;14.25;;;3.28;;
49820;SDS011;36893;52.520;13.450;2022-11-20T21:33:36;12.57;;;4.28;;
49820;SDS011;36893;52.520;13.450;2022-11-20T21:43:44;7.25;;;3.90;;
49820;SDS011;36893;52.520;13.450;2022-11-20T21:53:46;10.05;;;4.18;;
49820;SDS011;36893;52.520;13.450;2022-11-20T22:03:49;6.85;;;3.05;;
49820;SDS011;36893;52.520;13.450;2022-11-20T22:13:51;6.63;;;3.03;;
49820;SDS011;36893;52.520;13.450;2022-11-20T22:24:14;8.10;;;3.50;;
49820;SDS011;36893;52.520;13.450;2022-11-20T22:34:17;5.97;;;2.97;;
49820;SDS011;36893;52.520;13.450;2022-11-20T22:44:17;9.23;;;3.95;;
49820;SDS011;36893;52.520;13.450;2022-11-20T22:54:18;10.27;;;2.60;;
49820;SDS011;36893;52.520;13.450;2022-11-20T23:04:19;10.17;;;3.30;;
49820;SDS011;36893;52.520;13.450;2022-11-20T23:14:19;6.27;;;2.77;;
49820;SDS011;36893;52.520;13.450;2022-11-20T23:24:20;7.10;;;3.23;;
49820;SDS011;36893;52.520;13.450;2022-11-20T23:34:21;7.47;;;3.03;;
49820;SDS011;36893;52.520;13.450;2022-11-20T23:44:21;5.33;;;2.57;;
49820;SDS011;36893;52.520;13.450;2022-11-20T23:54:22;9.25;;;2.60;;
